createdAt,value
2022-11-05T00:00:05.851Z,9.20
2022-11-05T00:02:52.703Z,9.24
2022-11-05T00:05:38.695Z,9.23
2022-11-05T00:08:24.981Z,9.14
2022-11-05T00:10:53.054Z,9.24
2022-11-05T00:13:39.630Z,9.30
2022-11-05T00:16:36.560Z,9.34
2022-11-05T00:19:09.206Z,9.35
2022-11-05T00:21:55.842Z,9.35
2022-11-05T00:24:42.125Z,9.37
2022-11-05T00:27:10.487Z,9.42
2022-11-05T00:29:38.687Z,9.36
2022-11-05T00:32:06.636Z,9.38
2022-11-05T00:34:36.015Z,9.37
2022-11-05T00:37:03.874Z,9.32
2022-11-05T00:39:33.348Z,9.34
2022-11-05T00:42:18.586Z,9.35
2022-11-05T00:45:05.028Z,9.27
2022-11-05T00:47:52.043Z,9.25
2022-11-05T00:50:22.929Z,9.30
2022-11-05T00:52:58.266Z,9.28
2022-11-05T00:55:33.326Z,9.30
2022-11-05T00:58:02.075Z,9.33
2022-11-05T01:00:31.836Z,9.35
2022-11-05T01:03:01.410Z,9.35
2022-11-05T01:05:31.706Z,9.44
2022-11-05T01:07:59.544Z,9.51
2022-11-05T01:10:28.442Z,9.47
2022-11-05T01:12:56.617Z,9.44
2022-11-05T01:15:24.801Z,9.47
2022-11-05T01:17:53.409Z,9.49
2022-11-05T01:20:21.519Z,9.47
2022-11-05T01:22:50.785Z,9.45
2022-11-05T01:25:18.737Z,9.48
2022-11-05T01:27:46.914Z,9.43
2022-11-05T01:30:15.510Z,9.44
2022-11-05T01:32:43.590Z,9.48
2022-11-05T01:35:18.432Z,9.48
2022-11-05T01:37:46.775Z,9.51
2022-11-05T01:40:18.428Z,9.51
2022-11-05T01:42:46.396Z,9.54
2022-11-05T01:45:18.805Z,9.50
2022-11-05T01:48:07.655Z,9.51
2022-11-05T01:50:50.691Z,9.45
2022-11-05T01:53:25.679Z,9.35
2022-11-05T01:56:00.326Z,9.35
2022-11-05T01:58:33.132Z,9.30
2022-11-05T02:01:01.325Z,9.27
2022-11-05T02:03:30.294Z,9.32
2022-11-05T02:06:01.470Z,9.41
2022-11-05T02:08:47.551Z,9.36
2022-11-05T02:11:19.472Z,9.32
2022-11-05T02:13:48.354Z,9.36
2022-11-05T02:16:29.966Z,9.31
2022-11-05T02:19:05.958Z,9.27
2022-11-05T02:22:00.942Z,9.22
2022-11-05T02:25:00.711Z,9.28
2022-11-05T02:27:57.742Z,9.20
2022-11-05T02:30:33.460Z,9.16
2022-11-05T02:33:32.138Z,9.17
2022-11-05T02:36:19.238Z,9.18
2022-11-05T02:38:56.267Z,9.12
2022-11-05T02:41:31.393Z,9.12
2022-11-05T02:44:11.096Z,9.14
2022-11-05T02:46:47.600Z,9.25
2022-11-05T02:49:28.077Z,9.26
2022-11-05T02:51:58.472Z,9.24
2022-11-05T02:54:30.478Z,9.19
2022-11-05T02:57:00.678Z,9.26
2022-11-05T02:59:28.432Z,9.27
2022-11-05T03:01:59.927Z,9.23
2022-11-05T03:04:28.546Z,9.25
2022-11-05T03:07:13.228Z,9.22
2022-11-05T03:10:04.670Z,9.17
2022-11-05T03:12:38.055Z,9.13
2022-11-05T03:15:17.653Z,9.14
2022-11-05T03:17:59.090Z,9.10
2022-11-05T03:20:35.351Z,9.12
2022-11-05T03:23:24.745Z,9.08
2022-11-05T03:25:57.424Z,9.04
2022-11-05T03:28:29.073Z,9.05
2022-11-05T03:30:59.174Z,9.07
2022-11-05T03:33:32.189Z,9.08
2022-11-05T03:36:06.274Z,9.12
2022-11-05T03:38:37.688Z,9.21
2022-11-05T03:41:09.257Z,9.24
2022-11-05T03:43:42.444Z,9.26
2022-11-05T03:46:13.362Z,9.32
2022-11-05T03:48:48.489Z,9.37
2022-11-05T03:51:26.014Z,9.35
2022-11-05T03:53:58.915Z,9.34
2022-11-05T03:56:31.946Z,9.33
2022-11-05T03:59:03.336Z,9.26
2022-11-05T04:01:32.490Z,9.30
2022-11-05T04:04:01.818Z,9.22
2022-11-05T04:06:47.111Z,9.24
2022-11-05T04:09:32.479Z,9.35
2022-11-05T04:12:17.890Z,9.39
2022-11-05T04:14:46.110Z,9.38
2022-11-05T04:17:12.992Z,9.34
2022-11-05T04:20:01.860Z,9.29
2022-11-05T04:22:49.711Z,9.31
2022-11-05T04:25:19.099Z,9.37
2022-11-05T04:27:48.389Z,9.36
2022-11-05T04:30:20.019Z,9.39
2022-11-05T04:32:58.751Z,9.42
2022-11-05T04:35:28.933Z,9.43
2022-11-05T04:37:57.112Z,9.37
2022-11-05T04:40:25.053Z,9.49
2022-11-05T04:42:55.283Z,9.43
2022-11-05T04:45:23.857Z,9.43
2022-11-05T04:47:51.725Z,9.46
2022-11-05T04:50:19.708Z,9.51
2022-11-05T04:52:48.884Z,9.51
2022-11-05T04:55:16.946Z,9.45
2022-11-05T04:57:45.437Z,9.43
2022-11-05T05:00:13.912Z,9.38
2022-11-05T05:02:41.828Z,9.36
2022-11-05T05:05:09.775Z,9.33
2022-11-05T05:07:37.678Z,9.33
2022-11-05T05:10:09.112Z,9.36
2022-11-05T05:12:37.067Z,9.37
2022-11-05T05:15:05.739Z,9.32
2022-11-05T05:17:34.183Z,9.36
2022-11-05T05:20:19.735Z,9.34
2022-11-05T05:22:53.139Z,9.31
2022-11-05T05:25:23.149Z,9.40
2022-11-05T05:27:51.185Z,9.40
2022-11-05T05:30:19.211Z,9.40
2022-11-05T05:32:47.309Z,9.38
2022-11-05T05:35:15.381Z,9.41
2022-11-05T05:37:44.301Z,9.30
2022-11-05T05:40:12.680Z,9.44
2022-11-05T05:42:43.541Z,9.46
2022-11-05T05:45:12.610Z,9.45
2022-11-05T05:47:40.458Z,9.41
2022-11-05T05:50:08.908Z,9.41
2022-11-05T05:52:36.862Z,9.41
2022-11-05T05:55:05.029Z,9.40
2022-11-05T05:57:32.962Z,9.37
2022-11-05T06:00:02.309Z,9.32
2022-11-05T06:02:31.535Z,9.37
2022-11-05T06:05:01.029Z,9.37
2022-11-05T06:07:31.862Z,9.42
2022-11-05T06:10:04.191Z,9.39
2022-11-05T06:12:32.244Z,9.42
2022-11-05T06:15:00.873Z,9.33
2022-11-05T06:17:30.187Z,9.33
2022-11-05T06:19:57.990Z,9.29
2022-11-05T06:22:25.880Z,9.23
2022-11-05T06:24:53.771Z,9.22
2022-11-05T06:27:21.664Z,9.18
2022-11-05T06:29:49.400Z,9.23
2022-11-05T06:32:17.235Z,9.25
2022-11-05T06:34:46.623Z,9.23
2022-11-05T06:37:14.494Z,9.19
2022-11-05T06:39:42.429Z,9.16
2022-11-05T06:42:19.105Z,9.22
2022-11-05T06:44:48.194Z,9.24
2022-11-05T06:47:16.080Z,9.14
2022-11-05T06:49:43.982Z,9.18
2022-11-05T06:52:14.218Z,9.23
2022-11-05T06:54:42.825Z,9.19
2022-11-05T06:57:12.365Z,9.22
2022-11-05T06:59:40.850Z,9.29
2022-11-05T07:02:12.675Z,9.31
2022-11-05T07:04:40.562Z,9.34
2022-11-05T07:07:08.330Z,9.27
2022-11-05T07:09:40.634Z,9.26
2022-11-05T07:12:08.849Z,9.30
2022-11-05T07:14:36.780Z,9.26
2022-11-05T07:17:04.682Z,9.30
2022-11-05T07:19:32.553Z,9.31
2022-11-05T07:22:00.535Z,9.35
2022-11-05T07:24:28.352Z,9.33
2022-11-05T07:26:57.750Z,9.24
2022-11-05T07:29:25.583Z,9.20
2022-11-05T07:31:53.354Z,9.21
2022-11-05T07:34:21.560Z,9.18
2022-11-05T07:36:49.754Z,9.23
2022-11-05T07:39:17.654Z,9.21
2022-11-05T07:41:45.528Z,9.21
2022-11-05T07:44:17.547Z,9.23
2022-11-05T07:46:45.583Z,9.31
2022-11-05T07:49:13.433Z,9.39
2022-11-05T07:51:41.418Z,9.44
2022-11-05T07:54:09.595Z,9.48
2022-11-05T07:56:37.767Z,9.36
2022-11-05T07:59:06.231Z,9.48
2022-11-05T08:01:35.806Z,9.47
2022-11-05T08:04:04.335Z,9.47
2022-11-05T08:06:32.809Z,9.45
2022-11-05T08:09:00.939Z,9.38
2022-11-05T08:11:29.016Z,9.47
2022-11-05T08:13:57.026Z,9.50
2022-11-05T08:16:24.945Z,9.45
2022-11-05T08:18:54.316Z,9.50
2022-11-05T08:21:22.128Z,9.53
2022-11-05T08:23:49.936Z,9.56
2022-11-05T08:26:17.933Z,9.49
2022-11-05T08:28:45.765Z,9.48
2022-11-05T08:31:15.442Z,9.44
2022-11-05T08:33:43.458Z,9.48
2022-11-05T08:36:12.775Z,9.50
2022-11-05T08:38:41.013Z,9.48
2022-11-05T08:41:08.859Z,9.46
2022-11-05T08:43:36.921Z,9.50
2022-11-05T08:46:04.931Z,9.52
2022-11-05T08:48:33.047Z,9.51
2022-11-05T08:51:01.763Z,9.45
2022-11-05T08:53:31.243Z,9.49
2022-11-05T08:56:00.764Z,9.43
2022-11-05T08:58:29.165Z,9.41
2022-11-05T09:01:03.464Z,9.44
2022-11-05T09:03:32.810Z,9.40
2022-11-05T09:06:00.761Z,9.40
2022-11-05T09:08:29.967Z,9.44
2022-11-05T09:10:57.898Z,9.44
2022-11-05T09:13:26.444Z,9.48
2022-11-05T09:15:54.920Z,9.42
2022-11-05T09:18:22.880Z,9.38
2022-11-05T09:20:50.765Z,9.40
2022-11-05T09:23:18.850Z,9.46
2022-11-05T09:25:48.295Z,9.45
2022-11-05T09:28:18.273Z,9.45
2022-11-05T09:30:48.682Z,9.43
2022-11-05T09:33:18.349Z,9.30
2022-11-05T09:35:46.786Z,9.35
2022-11-05T09:38:15.192Z,9.40
2022-11-05T09:40:48.125Z,9.42
2022-11-05T09:43:24.081Z,9.39
2022-11-05T09:45:59.353Z,9.37
2022-11-05T09:48:32.144Z,9.36
2022-11-05T09:51:00.771Z,9.31
2022-11-05T09:53:29.370Z,9.30
2022-11-05T09:55:59.873Z,9.24
2022-11-05T09:58:40.054Z,9.29
2022-11-05T10:01:13.605Z,9.18
2022-11-05T10:03:46.582Z,9.16
2022-11-05T10:06:20.646Z,9.22
2022-11-05T10:08:52.322Z,9.21
2022-11-05T10:11:25.980Z,9.18
2022-11-05T10:13:59.957Z,9.15
2022-11-05T10:16:32.301Z,9.13
2022-11-05T10:19:06.573Z,9.10
2022-11-05T10:22:04.380Z,9.12
2022-11-05T10:24:23.217Z,9.07
2022-11-05T10:26:53.934Z,8.99
2022-11-05T10:29:29.462Z,9.11
2022-11-05T10:31:59.448Z,9.13
2022-11-05T10:34:34.172Z,8.86
2022-11-05T10:37:02.385Z,8.95
2022-11-05T10:39:32.367Z,8.92
2022-11-05T10:42:12.127Z,8.86
2022-11-05T10:44:47.768Z,8.88
2022-11-05T10:47:36.423Z,8.77
2022-11-05T10:50:06.502Z,8.67
2022-11-05T10:52:36.884Z,8.68
2022-11-05T10:55:08.066Z,8.55
2022-11-05T10:57:38.010Z,8.59
2022-11-05T11:00:31.249Z,8.52
2022-11-05T11:03:01.932Z,8.47
2022-11-05T11:05:33.397Z,8.57
2022-11-05T11:08:09.765Z,8.53
2022-11-05T11:10:43.437Z,8.56
2022-11-05T11:13:20.620Z,8.47
2022-11-05T11:15:51.109Z,8.43
2022-11-05T11:18:27.670Z,8.44
2022-11-05T11:21:07.295Z,8.38
2022-11-05T11:23:43.467Z,8.34
2022-11-05T11:26:12.800Z,8.34
2022-11-05T11:28:45.813Z,8.36
2022-11-05T11:31:17.626Z,8.24
2022-11-05T11:33:49.099Z,8.33
2022-11-05T11:36:19.559Z,8.28
2022-11-05T11:38:48.121Z,8.31
2022-11-05T11:41:29.149Z,8.32
2022-11-05T11:44:01.030Z,8.36
2022-11-05T11:46:33.678Z,8.35
2022-11-05T11:49:02.324Z,8.40
2022-11-05T11:51:33.523Z,8.40
2022-11-05T11:54:02.468Z,8.44
2022-11-05T11:56:32.923Z,8.45
2022-11-05T11:59:07.009Z,8.47
2022-11-05T12:02:17.955Z,8.43
2022-11-05T12:05:09.792Z,8.48
2022-11-05T12:07:56.507Z,8.45
2022-11-05T12:10:46.660Z,8.46
2022-11-05T12:14:04.768Z,8.42
2022-11-05T12:17:05.613Z,8.40
2022-11-05T12:19:50.656Z,8.37
2022-11-05T12:22:27.313Z,8.41
2022-11-05T12:25:20.230Z,8.38
2022-11-05T12:27:59.473Z,8.35
2022-11-05T12:30:30.450Z,8.33
2022-11-05T12:33:25.681Z,8.36
2022-11-05T12:36:09.603Z,8.38
2022-11-05T12:39:04.378Z,8.32
2022-11-05T12:41:36.242Z,8.32
2022-11-05T12:44:24.256Z,8.33
2022-11-05T12:47:04.405Z,8.42
2022-11-05T12:49:48.842Z,8.49
2022-11-05T12:52:36.759Z,8.51
2022-11-05T12:55:10.935Z,8.49
2022-11-05T12:57:43.207Z,8.55
2022-11-05T13:00:20.501Z,8.57
2022-11-05T13:02:53.847Z,8.58
2022-11-05T13:05:29.332Z,8.55
2022-11-05T13:08:01.829Z,8.54
2022-11-05T13:10:35.719Z,8.52
2022-11-05T13:13:07.815Z,8.53
2022-11-05T13:15:41.073Z,8.57
2022-11-05T13:18:16.175Z,8.58
2022-11-05T13:20:50.687Z,8.53
2022-11-05T13:23:26.144Z,8.48
2022-11-05T13:26:00.501Z,8.49
2022-11-05T13:28:39.637Z,8.48
2022-11-05T13:31:13.479Z,8.41
2022-11-05T13:33:46.352Z,8.37
2022-11-05T13:36:35.836Z,8.41
2022-11-05T13:39:13.101Z,8.44
2022-11-05T13:41:56.016Z,8.44
2022-11-05T13:44:58.410Z,8.51
2022-11-05T13:47:54.003Z,8.54
2022-11-05T13:50:49.082Z,8.53
2022-11-05T13:53:55.233Z,8.53
2022-11-05T13:56:39.254Z,8.51
2022-11-05T13:59:33.183Z,8.52
2022-11-05T14:02:04.504Z,8.47
2022-11-05T14:04:35.668Z,8.44
2022-11-05T14:07:10.627Z,8.45
2022-11-05T14:09:40.744Z,8.46
2022-11-05T14:12:20.219Z,8.47
2022-11-05T14:14:58.647Z,8.43
2022-11-05T14:17:34.611Z,8.41
2022-11-05T14:20:25.290Z,8.42
2022-11-05T14:22:54.023Z,8.26
2022-11-05T14:26:00.846Z,8.45
2022-11-05T14:28:42.074Z,8.42
2022-11-05T14:31:54.293Z,8.37
2022-11-05T14:34:24.129Z,8.41
2022-11-05T14:37:22.123Z,8.41
2022-11-05T14:39:50.608Z,8.38
2022-11-05T14:42:23.340Z,8.36
2022-11-05T14:45:04.594Z,8.37
2022-11-05T14:47:36.942Z,8.33
2022-11-05T14:50:13.819Z,8.34
2022-11-05T14:52:51.440Z,8.41
2022-11-05T14:55:28.540Z,8.35
2022-11-05T14:58:06.159Z,8.31
2022-11-05T15:00:49.289Z,8.31
2022-11-05T15:03:47.181Z,8.37
2022-11-05T15:06:26.329Z,8.30
2022-11-05T15:09:16.853Z,8.28
2022-11-05T15:11:53.359Z,8.33
2022-11-05T15:14:25.457Z,8.34
2022-11-05T15:16:55.905Z,8.35
2022-11-05T15:19:30.497Z,8.33
2022-11-05T15:22:00.599Z,8.32
2022-11-05T15:24:29.404Z,8.37
2022-11-05T15:27:05.851Z,8.39
2022-11-05T15:29:34.633Z,8.35
2022-11-05T15:32:02.996Z,8.40
2022-11-05T15:34:36.273Z,8.44
2022-11-05T15:37:22.006Z,8.44
2022-11-05T15:39:51.397Z,8.40
2022-11-05T15:42:22.187Z,8.49
2022-11-05T15:44:52.630Z,8.47
2022-11-05T15:47:23.007Z,8.43
2022-11-05T15:49:56.965Z,8.47
2022-11-05T15:52:34.738Z,8.41
2022-11-05T15:55:18.031Z,8.57
2022-11-05T15:57:51.023Z,8.55
2022-11-05T16:00:22.530Z,8.55
2022-11-05T16:02:56.347Z,8.57
2022-11-05T16:05:27.887Z,8.64
2022-11-05T16:07:59.390Z,8.69
2022-11-05T16:10:30.407Z,8.70
2022-11-05T16:12:58.278Z,8.75
2022-11-05T16:15:33.047Z,8.72
2022-11-05T16:18:01.735Z,8.78
2022-11-05T16:20:33.620Z,8.83
2022-11-05T16:23:04.187Z,8.74
2022-11-05T16:25:40.525Z,8.73
2022-11-05T16:28:22.663Z,8.70
2022-11-05T16:30:55.924Z,8.72
2022-11-05T16:33:24.730Z,8.72
2022-11-05T16:35:54.726Z,8.70
2022-11-05T16:38:23.920Z,8.64
2022-11-05T16:40:52.118Z,8.66
2022-11-05T16:43:23.328Z,8.56
2022-11-05T16:45:54.833Z,8.55
2022-11-05T16:48:22.968Z,8.48
2022-11-05T16:50:51.246Z,8.30
2022-11-05T16:53:21.789Z,8.33
2022-11-05T16:55:50.002Z,8.18
2022-11-05T16:58:21.786Z,8.19
2022-11-05T17:00:51.249Z,8.12
2022-11-05T17:03:19.735Z,8.08
2022-11-05T17:05:47.767Z,8.07
2022-11-05T17:08:15.973Z,7.99
2022-11-05T17:10:45.635Z,7.88
2022-11-05T17:13:16.383Z,7.81
2022-11-05T17:15:45.989Z,7.67
2022-11-05T17:18:18.461Z,7.48
2022-11-05T17:20:49.640Z,7.55
2022-11-05T17:23:20.145Z,7.54
2022-11-05T17:25:52.029Z,7.67
2022-11-05T17:28:20.705Z,7.68
2022-11-05T17:30:52.951Z,7.80
2022-11-05T17:33:23.250Z,7.82
2022-11-05T17:35:52.225Z,7.81
2022-11-05T17:38:20.862Z,7.79
2022-11-05T17:40:50.951Z,7.57
2022-11-05T17:43:20.010Z,7.59
2022-11-05T17:45:49.740Z,7.50
2022-11-05T17:48:18.113Z,7.40
2022-11-05T17:50:47.793Z,7.23
2022-11-05T17:53:17.301Z,7.28
2022-11-05T17:55:47.170Z,7.32
2022-11-05T17:58:17.291Z,7.31
2022-11-05T18:00:46.259Z,7.23
2022-11-05T18:03:15.015Z,6.98
2022-11-05T18:05:44.022Z,7.16
2022-11-05T18:08:12.524Z,7.12
2022-11-05T18:10:41.875Z,7.03
2022-11-05T18:13:09.949Z,7.02
2022-11-05T18:15:41.266Z,6.95
2022-11-05T18:18:10.963Z,7.08
2022-11-05T18:20:39.122Z,7.11
2022-11-05T18:23:07.032Z,7.09
2022-11-05T18:25:35.272Z,7.02
2022-11-05T18:28:03.122Z,6.92
2022-11-05T18:30:30.942Z,6.86
2022-11-05T18:33:00.769Z,6.89
2022-11-05T18:35:28.878Z,6.94
2022-11-05T18:37:57.013Z,7.04
2022-11-05T18:40:25.357Z,7.06
2022-11-05T18:42:53.152Z,7.03
2022-11-05T18:45:25.547Z,7.08
2022-11-05T18:47:56.807Z,7.09
2022-11-05T18:50:26.119Z,7.15
2022-11-05T18:52:53.916Z,7.19
2022-11-05T18:55:22.318Z,7.16
2022-11-05T18:57:50.387Z,7.09
2022-11-05T19:00:18.554Z,7.05
2022-11-05T19:02:46.627Z,7.07
2022-11-05T19:05:28.572Z,7.10
2022-11-05T19:07:58.952Z,7.14
2022-11-05T19:10:27.403Z,7.14
2022-11-05T19:12:56.390Z,7.10
2022-11-05T19:15:24.424Z,7.19
2022-11-05T19:17:52.320Z,7.13
2022-11-05T19:20:20.308Z,7.05
2022-11-05T19:22:48.310Z,7.00
2022-11-05T19:25:17.853Z,6.84
2022-11-05T19:27:45.747Z,6.88
2022-11-05T19:30:14.044Z,6.90
2022-11-05T19:32:41.898Z,6.89
2022-11-05T19:35:10.218Z,6.85
2022-11-05T19:37:38.609Z,6.90
2022-11-05T19:40:08.167Z,6.83
2022-11-05T19:42:37.698Z,6.93
2022-11-05T19:45:30.062Z,6.92
2022-11-05T19:47:55.056Z,6.96
2022-11-05T19:50:23.145Z,7.06
2022-11-05T19:52:51.251Z,7.05
2022-11-05T19:55:19.096Z,7.13
2022-11-05T19:57:48.623Z,7.12
2022-11-05T20:00:17.075Z,7.18
2022-11-05T20:02:46.417Z,7.18
2022-11-05T20:05:15.565Z,7.11
2022-11-05T20:07:46.962Z,7.13
2022-11-05T20:10:18.020Z,7.14
2022-11-05T20:12:46.033Z,7.23
2022-11-05T20:15:15.316Z,7.25
2022-11-05T20:17:43.158Z,7.18
2022-11-05T20:20:12.034Z,7.07
2022-11-05T20:22:40.172Z,7.13
2022-11-05T20:25:09.142Z,7.12
2022-11-05T20:27:37.388Z,7.05
2022-11-05T20:30:07.264Z,7.02
2022-11-05T20:32:36.588Z,7.01
2022-11-05T20:35:04.972Z,6.91
2022-11-05T20:37:32.875Z,6.89
2022-11-05T20:40:01.855Z,6.76
2022-11-05T20:42:29.648Z,6.82
2022-11-05T20:44:57.612Z,6.83
2022-11-05T20:47:25.563Z,6.82
2022-11-05T20:49:55.605Z,6.85
2022-11-05T20:52:24.142Z,6.83
2022-11-05T20:54:52.219Z,6.93
2022-11-05T20:57:21.028Z,6.92
2022-11-05T20:59:48.905Z,6.96
2022-11-05T21:02:17.172Z,6.92
2022-11-05T21:04:45.969Z,6.94
2022-11-05T21:07:16.704Z,6.91
2022-11-05T21:09:44.501Z,6.91
2022-11-05T21:12:12.496Z,6.89
2022-11-05T21:14:42.516Z,6.82
2022-11-05T21:17:13.070Z,6.83
2022-11-05T21:19:43.592Z,6.77
2022-11-05T21:22:15.173Z,6.69
2022-11-05T21:24:44.531Z,6.66
2022-11-05T21:27:12.600Z,6.57
2022-11-05T21:29:40.390Z,6.56
2022-11-05T21:32:08.744Z,6.57
2022-11-05T21:34:36.753Z,6.56
2022-11-05T21:37:05.735Z,6.60
2022-11-05T21:39:34.854Z,6.55
2022-11-05T21:42:04.424Z,6.55
2022-11-05T21:44:32.176Z,6.54
2022-11-05T21:47:00.258Z,6.45
2022-11-05T21:49:28.567Z,6.43
2022-11-05T21:52:13.943Z,6.46
2022-11-05T21:54:59.285Z,6.45
2022-11-05T21:57:46.203Z,6.42
2022-11-05T22:00:15.770Z,6.41
2022-11-05T22:02:43.780Z,6.37
2022-11-05T22:05:11.837Z,6.27
2022-11-05T22:07:40.539Z,6.15
2022-11-05T22:10:15.804Z,6.30
2022-11-05T22:12:46.561Z,6.32
2022-11-05T22:15:15.164Z,6.34
2022-11-05T22:17:46.872Z,6.37
2022-11-05T22:20:16.484Z,6.36
2022-11-05T22:22:44.640Z,6.42
2022-11-05T22:25:12.935Z,6.48
2022-11-05T22:27:40.784Z,6.47
2022-11-05T22:30:11.084Z,6.50
2022-11-05T22:32:39.007Z,6.55
2022-11-05T22:35:08.352Z,6.57
2022-11-05T22:37:36.190Z,6.58
2022-11-05T22:40:04.130Z,6.60
2022-11-05T22:42:32.146Z,6.60
2022-11-05T22:45:00.101Z,6.63
2022-11-05T22:47:29.356Z,6.75
2022-11-05T22:49:58.262Z,6.77
2022-11-05T22:52:26.263Z,6.90
2022-11-05T22:54:54.326Z,6.96
2022-11-05T22:57:22.159Z,7.02
2022-11-05T22:59:50.218Z,7.13
2022-11-05T23:02:18.358Z,7.22
2022-11-05T23:04:48.948Z,7.23
2022-11-05T23:07:34.124Z,7.25
2022-11-05T23:10:19.682Z,7.32
2022-11-05T23:12:47.658Z,7.37
2022-11-05T23:15:48.397Z,7.40
2022-11-05T23:18:34.073Z,7.47
2022-11-05T23:21:23.171Z,7.52
2022-11-05T23:24:06.471Z,7.55
2022-11-05T23:26:52.439Z,7.57
2022-11-05T23:29:22.357Z,7.59
2022-11-05T23:32:08.566Z,7.63
2022-11-05T23:34:36.535Z,7.66
2022-11-05T23:37:23.912Z,7.64
2022-11-05T23:39:52.538Z,7.68
2022-11-05T23:42:37.747Z,7.69
2022-11-05T23:45:24.380Z,7.72
2022-11-05T23:48:09.956Z,7.72
2022-11-05T23:50:40.019Z,7.77
2022-11-05T23:53:10.481Z,7.73
2022-11-05T23:55:38.351Z,7.72
2022-11-05T23:58:07.051Z,7.78
